createdAt,value
2022-09-17T00:01:13.032Z,13.39
2022-09-17T00:03:39.627Z,13.32
2022-09-17T00:06:11.781Z,13.32
2022-09-17T00:08:40.571Z,13.33
2022-09-17T00:11:09.660Z,13.36
2022-09-17T00:13:36.416Z,13.30
2022-09-17T00:16:03.581Z,13.25
2022-09-17T00:18:30.194Z,13.25
2022-09-17T00:20:56.673Z,13.23
2022-09-17T00:23:23.168Z,13.23
2022-09-17T00:25:49.641Z,13.25
2022-09-17T00:28:16.185Z,13.22
2022-09-17T00:30:44.476Z,13.21
2022-09-17T00:33:13.032Z,13.20
2022-09-17T00:35:39.539Z,13.19
2022-09-17T00:38:06.589Z,13.17
2022-09-17T00:40:33.375Z,13.20
2022-09-17T00:43:00.169Z,13.20
2022-09-17T00:45:28.314Z,13.21
2022-09-17T00:48:00.856Z,13.23
2022-09-17T00:50:34.030Z,13.26
2022-09-17T00:53:17.243Z,13.25
2022-09-17T00:55:48.758Z,13.20
2022-09-17T00:58:18.658Z,13.22
2022-09-17T01:00:47.018Z,13.22
2022-09-17T01:03:14.033Z,13.19
2022-09-17T01:05:43.242Z,13.18
2022-09-17T01:09:00.823Z,13.14
2022-09-17T01:11:50.082Z,13.15
2022-09-17T01:14:45.394Z,13.16
2022-09-17T01:17:14.776Z,13.12
2022-09-17T01:19:59.920Z,13.15
2022-09-17T01:22:54.451Z,13.12
2022-09-17T01:25:25.557Z,13.13
2022-09-17T01:27:58.127Z,13.13
2022-09-17T01:30:32.533Z,13.14
2022-09-17T01:33:12.411Z,13.18
2022-09-17T01:35:50.542Z,13.19
2022-09-17T01:38:28.333Z,13.19
2022-09-17T01:41:19.554Z,13.16
2022-09-17T01:43:50.967Z,13.14
2022-09-17T01:46:24.822Z,13.11
2022-09-17T01:48:58.403Z,13.10
2022-09-17T01:51:29.187Z,13.06
2022-09-17T01:54:03.099Z,13.06
2022-09-17T01:56:38.467Z,13.07
2022-09-17T01:59:11.243Z,13.06
2022-09-17T02:01:41.201Z,13.04
2022-09-17T02:04:13.338Z,13.05
2022-09-17T02:06:45.250Z,13.08
2022-09-17T02:09:20.067Z,13.06
2022-09-17T02:11:52.720Z,13.08
2022-09-17T02:14:24.985Z,13.09
2022-09-17T02:16:56.883Z,13.09
2022-09-17T02:19:27.058Z,13.06
2022-09-17T02:22:01.274Z,13.02
2022-09-17T02:24:37.621Z,12.98
2022-09-17T02:27:22.637Z,12.93
2022-09-17T02:29:49.769Z,12.93
2022-09-17T02:32:16.292Z,12.94
2022-09-17T02:34:42.991Z,12.95
2022-09-17T02:37:09.765Z,12.96
2022-09-17T02:39:36.519Z,12.97
2022-09-17T02:42:22.243Z,12.96
2022-09-17T02:45:10.010Z,12.95
2022-09-17T02:48:04.573Z,12.87
2022-09-17T02:50:33.696Z,12.91
2022-09-17T02:53:00.114Z,12.80
2022-09-17T02:55:39.163Z,12.72
2022-09-17T02:58:24.779Z,12.65
2022-09-17T03:00:52.273Z,12.58
2022-09-17T03:03:31.527Z,12.52
2022-09-17T03:05:58.840Z,12.48
2022-09-17T03:08:32.070Z,12.44
2022-09-17T03:10:58.620Z,12.45
2022-09-17T03:13:25.377Z,12.41
2022-09-17T03:15:52.177Z,12.41
2022-09-17T03:18:18.686Z,12.39
2022-09-17T03:20:46.480Z,12.36
2022-09-17T03:23:13.178Z,12.37
2022-09-17T03:25:39.690Z,12.37
2022-09-17T03:28:06.185Z,12.35
2022-09-17T03:30:32.748Z,12.37
2022-09-17T03:32:59.262Z,12.35
2022-09-17T03:35:25.797Z,12.35
2022-09-17T03:37:52.363Z,12.35
2022-09-17T03:40:19.910Z,12.30
2022-09-17T03:42:46.611Z,12.28
2022-09-17T03:45:13.194Z,12.28
2022-09-17T03:47:39.694Z,12.23
2022-09-17T03:50:06.555Z,12.22
2022-09-17T03:52:33.044Z,12.16
2022-09-17T03:54:59.567Z,12.10
2022-09-17T03:57:26.062Z,12.07
2022-09-17T03:59:52.675Z,12.01
2022-09-17T04:02:19.207Z,12.02
2022-09-17T04:04:45.746Z,12.03
2022-09-17T04:07:12.219Z,12.03
2022-09-17T04:09:38.767Z,12.04
2022-09-17T04:12:05.431Z,12.02
2022-09-17T04:14:32.014Z,12.01
2022-09-17T04:16:58.906Z,12.00
2022-09-17T04:19:25.470Z,12.06
2022-09-17T04:21:53.022Z,12.03
2022-09-17T04:24:19.626Z,12.04
2022-09-17T04:26:46.182Z,12.07
2022-09-17T04:29:12.651Z,12.04
2022-09-17T04:31:39.138Z,12.03
2022-09-17T04:34:05.876Z,12.04
2022-09-17T04:36:32.363Z,12.03
2022-09-17T04:38:59.084Z,12.01
2022-09-17T04:41:25.562Z,12.01
2022-09-17T04:43:52.218Z,11.99
2022-09-17T04:46:18.911Z,12.00
2022-09-17T04:48:45.418Z,12.02
2022-09-17T04:51:12.176Z,12.02
2022-09-17T04:53:38.662Z,12.02
2022-09-17T04:56:05.474Z,12.03
2022-09-17T04:58:33.019Z,12.02
2022-09-17T05:00:59.730Z,11.98
2022-09-17T05:03:26.560Z,11.93
2022-09-17T05:05:53.059Z,12.00
2022-09-17T05:08:19.534Z,12.04
2022-09-17T05:10:46.064Z,12.06
2022-09-17T05:13:12.550Z,12.07
2022-09-17T05:15:39.072Z,12.12
2022-09-17T05:18:05.605Z,12.12
2022-09-17T05:20:32.244Z,12.13
2022-09-17T05:22:58.714Z,12.15
2022-09-17T05:25:25.268Z,12.16
2022-09-17T05:27:56.272Z,12.18
2022-09-17T05:30:23.119Z,12.18
2022-09-17T05:32:49.722Z,12.21
2022-09-17T05:35:16.447Z,12.26
2022-09-17T05:37:42.951Z,12.31
2022-09-17T05:40:10.307Z,12.31
2022-09-17T05:42:36.911Z,12.27
2022-09-17T05:45:03.826Z,12.28
2022-09-17T05:47:30.307Z,12.31
2022-09-17T05:49:56.835Z,12.34
2022-09-17T05:52:28.077Z,12.36
2022-09-17T05:54:55.129Z,12.43
2022-09-17T05:57:21.710Z,12.35
2022-09-17T05:59:48.254Z,12.28
2022-09-17T06:02:14.865Z,12.26
2022-09-17T06:04:41.482Z,12.25
2022-09-17T06:07:09.327Z,12.24
2022-09-17T06:09:37.583Z,12.21
2022-09-17T06:12:07.450Z,12.18
2022-09-17T06:14:33.972Z,12.18
2022-09-17T06:17:00.473Z,12.19
2022-09-17T06:19:28.119Z,12.20
2022-09-17T06:21:55.173Z,12.22
2022-09-17T06:24:21.669Z,12.24
2022-09-17T06:26:48.179Z,12.24
2022-09-17T06:29:15.252Z,12.22
2022-09-17T06:31:44.862Z,12.24
2022-09-17T06:34:11.975Z,12.26
2022-09-17T06:36:38.699Z,12.27
2022-09-17T06:39:05.258Z,12.28
2022-09-17T06:41:31.747Z,12.29
2022-09-17T06:43:58.833Z,12.27
2022-09-17T06:46:25.833Z,12.26
2022-09-17T06:48:52.341Z,12.26
2022-09-17T06:51:18.874Z,12.29
2022-09-17T06:53:45.560Z,12.25
2022-09-17T06:56:12.179Z,12.28
2022-09-17T06:58:38.717Z,12.35
2022-09-17T07:01:06.022Z,12.41
2022-09-17T07:03:33.397Z,12.45
2022-09-17T07:06:00.206Z,12.51
2022-09-17T07:08:26.747Z,12.55
2022-09-17T07:10:57.519Z,12.59
2022-09-17T07:13:25.110Z,12.60
2022-09-17T07:15:59.963Z,12.60
2022-09-17T07:18:26.980Z,12.62
2022-09-17T07:20:59.175Z,12.69
2022-09-17T07:23:30.287Z,12.78
2022-09-17T07:25:59.350Z,12.89
2022-09-17T07:28:26.970Z,12.92
2022-09-17T07:30:53.924Z,13.01
2022-09-17T07:33:23.406Z,13.03
2022-09-17T07:35:58.246Z,13.09
2022-09-17T07:38:27.304Z,13.15
2022-09-17T07:41:05.426Z,13.22
2022-09-17T07:43:33.969Z,13.28
2022-09-17T07:46:02.016Z,13.36
2022-09-17T07:48:29.569Z,13.40
2022-09-17T07:50:56.448Z,13.44
2022-09-17T07:53:23.515Z,13.49
2022-09-17T07:55:53.266Z,13.55
2022-09-17T07:58:21.046Z,13.61
2022-09-17T08:00:48.369Z,13.72
2022-09-17T08:03:14.994Z,13.75
2022-09-17T08:05:41.617Z,13.78
2022-09-17T08:08:08.123Z,13.81
2022-09-17T08:10:35.543Z,13.83
2022-09-17T08:13:02.012Z,13.88
2022-09-17T08:15:29.056Z,13.90
2022-09-17T08:17:55.622Z,13.92
2022-09-17T08:20:24.199Z,13.88
2022-09-17T08:22:50.701Z,13.89
2022-09-17T08:25:17.214Z,13.95
2022-09-17T08:27:44.252Z,13.99
2022-09-17T08:30:11.044Z,14.02
2022-09-17T08:32:37.536Z,14.00
2022-09-17T08:35:04.164Z,13.99
2022-09-17T08:37:30.844Z,13.96
2022-09-17T08:39:58.358Z,14.02
2022-09-17T08:42:57.744Z,14.02
2022-09-17T08:45:24.398Z,13.94
2022-09-17T08:47:51.029Z,13.89
2022-09-17T08:50:42.502Z,13.84
2022-09-17T08:53:24.151Z,13.80
2022-09-17T08:56:02.947Z,13.75
2022-09-17T08:58:41.640Z,13.67
2022-09-17T09:01:14.258Z,13.67
2022-09-17T09:03:53.499Z,13.71
2022-09-17T09:06:23.910Z,13.67
2022-09-17T09:08:58.737Z,13.61
2022-09-17T09:11:31.040Z,13.61
2022-09-17T09:14:06.928Z,13.52
2022-09-17T09:16:37.556Z,13.58
2022-09-17T09:19:26.933Z,13.64
2022-09-17T09:22:01.636Z,13.64
2022-09-17T09:24:34.278Z,13.75
2022-09-17T09:27:13.618Z,13.79
2022-09-17T09:30:02.237Z,13.80
2022-09-17T09:32:34.866Z,13.90
2022-09-17T09:35:14.258Z,14.03
2022-09-17T09:37:53.303Z,14.12
2022-09-17T09:40:26.176Z,14.10
2022-09-17T09:42:57.466Z,14.05
2022-09-17T09:45:49.317Z,14.10
2022-09-17T09:48:38.513Z,14.18
2022-09-17T09:51:33.702Z,14.25
2022-09-17T09:54:18.858Z,14.25
2022-09-17T09:56:59.160Z,14.37
2022-09-17T09:59:26.396Z,14.43
2022-09-17T10:01:53.372Z,14.47
2022-09-17T10:04:26.178Z,14.46
2022-09-17T10:06:55.847Z,14.47
2022-09-17T10:09:22.733Z,14.40
2022-09-17T10:12:02.718Z,14.41
2022-09-17T10:14:35.001Z,14.44
2022-09-17T10:17:14.283Z,14.43
2022-09-17T10:19:41.944Z,14.48
2022-09-17T10:22:19.463Z,14.44
2022-09-17T10:24:47.034Z,14.46
2022-09-17T10:27:17.031Z,14.38
2022-09-17T10:29:49.227Z,14.42
2022-09-17T10:32:18.050Z,14.49
2022-09-17T10:35:24.592Z,14.54
2022-09-17T10:37:52.982Z,14.49
2022-09-17T10:40:19.524Z,14.55
2022-09-17T10:42:46.391Z,14.50
2022-09-17T10:45:32.358Z,14.50
2022-09-17T10:48:00.369Z,14.51
2022-09-17T10:50:32.810Z,14.51
2022-09-17T10:53:04.660Z,14.53
2022-09-17T10:55:51.991Z,14.54
2022-09-17T10:58:33.334Z,14.56
2022-09-17T11:01:24.363Z,14.56
2022-09-17T11:04:14.850Z,14.59
2022-09-17T11:07:06.282Z,14.54
2022-09-17T11:10:00.734Z,14.55
2022-09-17T11:12:37.116Z,14.49
2022-09-17T11:15:29.612Z,14.39
2022-09-17T11:18:19.227Z,14.34
2022-09-17T11:21:13.458Z,14.35
2022-09-17T11:24:07.403Z,14.29
2022-09-17T11:27:17.813Z,14.13
2022-09-17T11:30:16.915Z,14.00
2022-09-17T11:32:50.259Z,13.91
2022-09-17T11:35:22.863Z,13.90
2022-09-17T11:38:03.885Z,14.00
2022-09-17T11:40:40.115Z,14.04
2022-09-17T11:43:30.507Z,14.03
2022-09-17T11:46:17.451Z,14.04
2022-09-17T11:48:48.748Z,14.09
2022-09-17T11:51:27.829Z,14.04
2022-09-17T11:54:14.151Z,14.06
2022-09-17T11:56:47.821Z,14.08
2022-09-17T11:59:34.083Z,14.16
2022-09-17T12:02:15.514Z,14.21
2022-09-17T12:05:19.890Z,14.18
2022-09-17T12:08:01.298Z,14.15
2022-09-17T12:10:35.613Z,14.14
2022-09-17T12:13:31.315Z,14.01
2022-09-17T12:16:12.975Z,14.01
2022-09-17T12:18:48.636Z,13.94
2022-09-17T12:21:21.472Z,13.93
2022-09-17T12:23:54.131Z,13.92
2022-09-17T12:26:33.324Z,13.93
2022-09-17T12:29:29.199Z,13.89
2022-09-17T12:32:01.943Z,13.84
2022-09-17T12:34:50.530Z,13.89
2022-09-17T12:37:20.981Z,13.83
2022-09-17T12:39:53.162Z,13.84
2022-09-17T12:42:19.611Z,13.90
2022-09-17T12:45:18.442Z,13.97
2022-09-17T12:48:06.542Z,14.02
2022-09-17T12:50:53.352Z,14.06
2022-09-17T12:53:25.911Z,14.02
2022-09-17T12:56:00.595Z,14.02
2022-09-17T12:58:50.474Z,13.94
2022-09-17T13:01:35.168Z,13.93
2022-09-17T13:04:43.600Z,13.87
2022-09-17T13:07:16.111Z,13.88
2022-09-17T13:09:45.511Z,13.84
2022-09-17T13:12:35.947Z,13.71
2022-09-17T13:15:31.552Z,13.63
2022-09-17T13:18:27.471Z,13.64
2022-09-17T13:20:56.890Z,13.63
2022-09-17T13:23:37.735Z,13.54
2022-09-17T13:26:06.012Z,13.48
2022-09-17T13:28:43.400Z,13.45
2022-09-17T13:31:18.944Z,13.50
2022-09-17T13:33:59.670Z,13.52
2022-09-17T13:36:42.587Z,13.46
2022-09-17T13:39:30.484Z,13.43
2022-09-17T13:42:09.506Z,13.47
2022-09-17T13:44:41.297Z,13.45
2022-09-17T13:47:22.424Z,13.44
2022-09-17T13:49:58.046Z,13.38
2022-09-17T13:52:46.849Z,13.38
2022-09-17T13:55:49.322Z,13.42
2022-09-17T13:58:18.896Z,13.51
2022-09-17T14:00:51.427Z,13.49
2022-09-17T14:03:30.841Z,13.50
2022-09-17T14:06:10.994Z,13.48
2022-09-17T14:08:43.602Z,13.53
2022-09-17T14:11:22.159Z,13.49
2022-09-17T14:14:14.299Z,13.49
2022-09-17T14:16:45.722Z,13.46
2022-09-17T14:19:29.621Z,13.43
2022-09-17T14:22:00.673Z,13.44
2022-09-17T14:24:33.150Z,13.40
2022-09-17T14:27:08.670Z,13.33
2022-09-17T14:29:50.731Z,13.24
2022-09-17T14:32:27.803Z,13.26
2022-09-17T14:34:54.633Z,13.23
2022-09-17T14:37:24.215Z,13.14
2022-09-17T14:39:52.506Z,13.18
2022-09-17T14:42:35.670Z,13.19
2022-09-17T14:45:16.082Z,13.15
2022-09-17T14:47:42.838Z,13.09
2022-09-17T14:50:24.569Z,13.01
2022-09-17T14:52:53.482Z,12.98
2022-09-17T14:55:24.041Z,12.96
2022-09-17T14:57:56.616Z,12.98
2022-09-17T15:00:31.465Z,12.97
2022-09-17T15:03:00.839Z,12.94
2022-09-17T15:05:34.193Z,12.91
2022-09-17T15:08:09.684Z,12.91
2022-09-17T15:10:48.971Z,12.93
2022-09-17T15:13:19.346Z,12.92
2022-09-17T15:15:56.295Z,12.94
2022-09-17T15:18:38.234Z,12.93
2022-09-17T15:21:15.310Z,12.91
2022-09-17T15:23:42.753Z,12.85
2022-09-17T15:26:09.997Z,12.91
2022-09-17T15:28:41.537Z,12.87
2022-09-17T15:31:18.131Z,12.87
2022-09-17T15:33:45.959Z,12.80
2022-09-17T15:36:27.363Z,12.80
2022-09-17T15:38:54.327Z,12.77
2022-09-17T15:41:36.882Z,12.74
2022-09-17T15:44:32.101Z,12.65
2022-09-17T15:47:39.352Z,12.58
2022-09-17T15:50:18.931Z,12.59
2022-09-17T15:52:46.132Z,12.55
2022-09-17T15:56:03.079Z,12.49
2022-09-17T15:58:51.679Z,12.43
2022-09-17T16:01:18.438Z,12.42
2022-09-17T16:03:44.945Z,12.43
2022-09-17T16:06:20.774Z,12.41
2022-09-17T16:09:01.289Z,12.39
2022-09-17T16:11:31.895Z,12.38
2022-09-17T16:14:00.232Z,12.42
2022-09-17T16:16:36.181Z,12.41
2022-09-17T16:19:04.399Z,12.42
2022-09-17T16:21:31.251Z,12.43
2022-09-17T16:23:58.272Z,12.43
2022-09-17T16:26:30.669Z,12.41
2022-09-17T16:29:02.677Z,12.45
2022-09-17T16:31:29.728Z,12.43
2022-09-17T16:33:56.255Z,12.45
2022-09-17T16:36:22.899Z,12.42
2022-09-17T16:38:49.405Z,12.40
2022-09-17T16:41:15.874Z,12.40
2022-09-17T16:43:42.371Z,12.32
2022-09-17T16:46:10.909Z,12.38
2022-09-17T16:48:38.079Z,12.34
2022-09-17T16:51:08.699Z,12.30
2022-09-17T16:53:35.170Z,12.29
2022-09-17T16:56:01.923Z,12.28
2022-09-17T16:58:28.411Z,12.27
2022-09-17T17:00:55.042Z,12.25
2022-09-17T17:03:21.700Z,12.27
2022-09-17T17:05:48.295Z,12.25
2022-09-17T17:08:14.855Z,12.14
2022-09-17T17:10:41.670Z,12.14
2022-09-17T17:13:08.172Z,12.09
2022-09-17T17:15:34.707Z,12.05
2022-09-17T17:18:01.183Z,12.10
2022-09-17T17:20:27.749Z,12.04
2022-09-17T17:22:55.080Z,12.03
2022-09-17T17:25:23.667Z,12.03
2022-09-17T17:27:50.356Z,12.02
2022-09-17T17:30:17.500Z,12.01
2022-09-17T17:32:45.930Z,12.05
2022-09-17T17:35:12.467Z,12.02
2022-09-17T17:37:39.000Z,12.03
2022-09-17T17:40:08.947Z,12.00
2022-09-17T17:42:38.200Z,11.95
2022-09-17T17:45:06.454Z,11.96
2022-09-17T17:47:33.219Z,11.97
2022-09-17T17:49:59.691Z,12.00
2022-09-17T17:52:26.257Z,11.96
2022-09-17T17:54:52.875Z,11.91
2022-09-17T17:57:19.474Z,11.87
2022-09-17T17:59:46.010Z,11.87
2022-09-17T18:02:12.653Z,11.89
2022-09-17T18:04:39.194Z,11.88
2022-09-17T18:07:05.764Z,11.84
2022-09-17T18:09:32.311Z,11.81
2022-09-17T18:11:58.811Z,11.82
2022-09-17T18:14:25.282Z,11.81
2022-09-17T18:16:51.803Z,11.81
2022-09-17T18:19:18.320Z,11.81
2022-09-17T18:21:44.801Z,11.82
2022-09-17T18:24:11.502Z,11.79
2022-09-17T18:26:38.007Z,11.78
2022-09-17T18:29:07.904Z,11.78
2022-09-17T18:31:35.410Z,11.77
2022-09-17T18:34:04.973Z,11.72
2022-09-17T18:36:33.578Z,11.66
2022-09-17T18:39:53.310Z,11.63
2022-09-17T18:41:49.039Z,11.53
2022-09-17T18:44:16.023Z,11.51
2022-09-17T18:46:42.780Z,11.54
2022-09-17T18:49:09.421Z,11.55
2022-09-17T18:51:35.923Z,11.54
2022-09-17T18:54:03.831Z,11.51
2022-09-17T18:56:35.869Z,11.49
2022-09-17T18:59:07.750Z,11.46
2022-09-17T19:01:34.991Z,11.47
2022-09-17T19:04:01.807Z,11.47
2022-09-17T19:06:28.737Z,11.51
2022-09-17T19:09:00.138Z,11.46
2022-09-17T19:11:26.847Z,11.53
2022-09-17T19:13:53.323Z,11.49
2022-09-17T19:16:19.982Z,11.50
2022-09-17T19:18:46.604Z,11.49
2022-09-17T19:21:18.272Z,11.44
2022-09-17T19:23:47.373Z,11.49
2022-09-17T19:26:25.385Z,11.50
2022-09-17T19:28:53.438Z,11.46
2022-09-17T19:31:20.933Z,11.44
2022-09-17T19:33:47.715Z,11.40
2022-09-17T19:36:16.235Z,11.41
2022-09-17T19:38:43.262Z,11.41
2022-09-17T19:41:12.487Z,11.36
2022-09-17T19:43:39.414Z,11.28
2022-09-17T19:46:07.083Z,11.28
2022-09-17T19:48:37.566Z,11.32
2022-09-17T19:51:05.145Z,11.30
2022-09-17T19:53:32.871Z,11.33
2022-09-17T19:55:59.537Z,11.40
2022-09-17T19:58:26.058Z,11.39
2022-09-17T20:00:59.183Z,11.38
2022-09-17T20:03:26.579Z,11.34
2022-09-17T20:06:00.770Z,11.32
2022-09-17T20:08:27.540Z,11.34
2022-09-17T20:10:55.041Z,11.33
2022-09-17T20:13:22.676Z,11.36
2022-09-17T20:15:49.273Z,11.37
2022-09-17T20:18:18.716Z,11.39
2022-09-17T20:20:49.135Z,11.34
2022-09-17T20:23:15.616Z,11.35
2022-09-17T20:25:42.117Z,11.28
2022-09-17T20:28:08.585Z,11.27
2022-09-17T20:30:35.087Z,11.25
2022-09-17T20:33:01.606Z,11.24
2022-09-17T20:35:28.119Z,11.20
2022-09-17T20:40:41.169Z,11.19
2022-09-17T20:43:07.638Z,11.22
2022-09-17T20:45:34.106Z,11.21
2022-09-17T20:48:00.612Z,11.23
2022-09-17T20:50:27.132Z,11.18
2022-09-17T20:52:53.623Z,11.17
2022-09-17T20:55:21.509Z,11.11
2022-09-17T20:57:48.332Z,11.14
2022-09-17T21:00:20.520Z,11.09
2022-09-17T21:02:51.810Z,11.13
2022-09-17T21:05:18.643Z,11.11
2022-09-17T21:07:45.691Z,11.08
2022-09-17T21:10:13.516Z,11.10
2022-09-17T21:12:40.010Z,11.09
2022-09-17T21:15:06.834Z,11.08
2022-09-17T21:17:33.934Z,11.06
2022-09-17T21:20:00.502Z,11.09
2022-09-17T21:22:26.994Z,11.09
2022-09-17T21:24:53.470Z,11.07
2022-09-17T21:27:19.950Z,11.08
2022-09-17T21:29:46.412Z,11.06
2022-09-17T21:32:12.919Z,11.07
2022-09-17T21:34:39.419Z,11.09
2022-09-17T21:37:06.479Z,11.08
2022-09-17T21:39:35.050Z,11.11
2022-09-17T21:42:01.550Z,11.10
2022-09-17T21:44:28.063Z,11.13
2022-09-17T21:46:57.493Z,11.13
2022-09-17T21:49:25.073Z,11.12
2022-09-17T21:51:51.924Z,11.13
2022-09-17T21:54:18.622Z,11.11
2022-09-17T21:56:46.210Z,11.08
2022-09-17T21:59:14.531Z,11.09
2022-09-17T22:01:47.290Z,11.08
2022-09-17T22:04:20.589Z,11.06
2022-09-17T22:06:49.020Z,11.03
2022-09-17T22:09:21.384Z,10.96
2022-09-17T22:11:48.621Z,10.99
2022-09-17T22:14:19.342Z,10.98
2022-09-17T22:16:48.625Z,10.95
2022-09-17T22:19:16.703Z,10.94
2022-09-17T22:21:46.601Z,10.92
2022-09-17T22:24:15.103Z,10.88
2022-09-17T22:26:44.128Z,10.88
2022-09-17T22:29:16.070Z,10.82
2022-09-17T22:31:43.221Z,10.81
2022-09-17T22:34:14.127Z,10.77
2022-09-17T22:36:41.398Z,10.71
2022-09-17T22:39:08.264Z,10.71
2022-09-17T22:41:37.082Z,10.73
2022-09-17T22:44:06.236Z,10.76
2022-09-17T22:46:35.541Z,10.78
2022-09-17T22:49:02.394Z,10.73
2022-09-17T22:51:30.181Z,10.68
2022-09-17T22:53:56.933Z,10.61
2022-09-17T22:56:23.723Z,10.61
2022-09-17T22:58:50.782Z,10.58
2022-09-17T23:01:23.826Z,10.54
2022-09-17T23:03:53.616Z,10.49
2022-09-17T23:06:26.128Z,10.47
2022-09-17T23:08:52.890Z,10.48
2022-09-17T23:11:22.597Z,10.47
2022-09-17T23:13:50.842Z,10.49
2022-09-17T23:16:17.709Z,10.52
2022-09-17T23:18:44.414Z,10.55
2022-09-17T23:21:16.456Z,10.47
2022-09-17T23:23:46.239Z,10.46
2022-09-17T23:26:21.370Z,10.47
2022-09-17T23:28:48.695Z,10.40
2022-09-17T23:31:21.526Z,10.42
2022-09-17T23:33:48.989Z,10.41
2022-09-17T23:36:22.439Z,10.43
2022-09-17T23:38:50.100Z,10.44
2022-09-17T23:41:36.766Z,10.43
2022-09-17T23:44:09.398Z,10.41
2022-09-17T23:46:38.841Z,10.38
2022-09-17T23:49:06.442Z,10.39
2022-09-17T23:51:35.751Z,10.39
2022-09-17T23:54:02.979Z,10.36
2022-09-17T23:56:29.518Z,10.36
2022-09-17T23:58:59.083Z,10.36
